Time;durP1;ratioP1;P1;durP2;ratioP2;P2;SDS_P1;SDS_P2;PMS_P1;PMS_P2;Temp;Humidity;BMP_temperature;BMP_pressure;BME280_temperature;BME280_humidity;BME280_pressure;Samples;Min_cycle;Max_cycle;Signal;HPM_P1;HPM_P2
2023/04/14 00:00:33;;;;;;;6.72;2.75;;;7.40;99.90;;;;;;4988154;28;20082;-69
2023/04/14 00:03:02;;;;;;;7.30;2.85;;;7.30;99.90;;;;;;4985900;28;20038;-70
2023/04/14 00:05:32;;;;;;;6.20;2.67;;;7.30;99.90;;;;;;4978749;28;20522;-69
2023/04/14 00:07:58;;;;;;;6.10;2.65;;;7.20;99.90;;;;;;4982815;28;20049;-69
2023/04/14 00:10:25;;;;;;;9.10;2.70;;;7.20;99.90;;;;;;4967241;28;20397;-70
2023/04/14 00:12:56;;;;;;;11.00;2.72;;;7.10;99.90;;;;;;4982365;28;20177;-70
2023/04/14 00:15:22;;;;;;;8.00;2.60;;;7.10;99.90;;;;;;4982725;28;20030;-69
2023/04/14 00:17:47;;;;;;;8.93;2.88;;;7.10;99.90;;;;;;4981590;28;20061;-69
2023/04/14 00:20:13;;;;;;;6.70;2.83;;;7.10;99.90;;;;;;4965569;28;20057;-70
2023/04/14 00:22:39;;;;;;;7.28;2.55;;;7.10;99.90;;;;;;4985483;28;20167;-69
2023/04/14 00:25:05;;;;;;;4.90;2.50;;;7.00;99.90;;;;;;4967088;28;20054;-70
2023/04/14 00:27:31;;;;;;;8.07;2.60;;;7.10;99.90;;;;;;4981959;28;20038;-69
2023/04/14 00:29:56;;;;;;;8.25;2.95;;;6.90;99.90;;;;;;4984560;28;20505;-69
2023/04/14 00:32:22;;;;;;;7.90;3.00;;;6.90;99.90;;;;;;4966018;28;20057;-69
2023/04/14 00:34:48;;;;;;;8.35;3.17;;;6.90;99.90;;;;;;4965673;28;20051;-69
2023/04/14 00:37:13;;;;;;;9.20;3.13;;;6.80;99.90;;;;;;4967844;28;20101;-70
2023/04/14 00:39:39;;;;;;;8.15;2.75;;;6.80;99.90;;;;;;4967857;28;20634;-69
2023/04/14 00:42:05;;;;;;;9.57;2.85;;;6.70;99.90;;;;;;4984166;28;20117;-70
2023/04/14 00:44:31;;;;;;;6.65;2.95;;;6.70;99.90;;;;;;4979909;28;20326;-69
2023/04/14 00:46:58;;;;;;;8.52;3.15;;;6.60;99.90;;;;;;4983485;28;20050;-70
2023/04/14 00:49:24;;;;;;;8.85;2.97;;;6.60;99.90;;;;;;4974543;28;20536;-70
2023/04/14 00:51:50;;;;;;;6.70;2.70;;;6.50;99.90;;;;;;4984530;28;20077;-69
2023/04/14 00:54:18;;;;;;;9.77;3.40;;;6.50;99.90;;;;;;4984599;28;20064;-70
2023/04/14 00:56:45;;;;;;;10.35;3.13;;;6.50;99.90;;;;;;4967137;28;20046;-70
2023/04/14 00:59:13;;;;;;;6.80;2.80;;;6.40;99.90;;;;;;4965316;28;20050;-70
2023/04/14 01:01:39;;;;;;;9.80;3.20;;;6.40;99.90;;;;;;4971212;28;20761;-69
2023/04/14 01:04:05;;;;;;;8.93;3.05;;;6.40;99.90;;;;;;4966131;28;20046;-69
2023/04/14 01:06:31;;;;;;;8.00;3.25;;;6.40;99.90;;;;;;4965906;28;20124;-70
2023/04/14 01:08:58;;;;;;;8.05;3.33;;;6.40;99.90;;;;;;4985433;28;20047;-70
2023/04/14 01:11:27;;;;;;;9.60;3.08;;;6.40;99.90;;;;;;4984992;28;20101;-70
2023/04/14 01:14:10;;;;;;;5.50;2.65;;;6.40;99.90;;;;;;4977853;28;20126;-69
2023/04/14 01:16:39;;;;;;;7.32;3.20;;;6.40;99.90;;;;;;4983149;28;20112;-71
2023/04/14 01:19:14;;;;;;;9.07;3.53;;;6.50;99.90;;;;;;4975684;28;20073;-69
2023/04/14 01:21:45;;;;;;;8.68;3.13;;;6.50;99.90;;;;;;4980561;28;20050;-69
2023/04/14 01:24:20;;;;;;;7.82;3.25;;;6.50;99.90;;;;;;4965499;28;20619;-70
2023/04/14 01:27:17;;;;;;;8.77;3.08;;;6.60;99.90;;;;;;4985734;28;20054;-69
2023/04/14 01:30:08;;;;;;;10.00;3.20;;;6.60;99.90;;;;;;4965591;28;20054;-69
2023/04/14 01:32:41;;;;;;;7.88;2.83;;;6.70;99.90;;;;;;4967961;28;20046;-69
2023/04/14 01:35:19;;;;;;;7.20;2.97;;;6.70;99.90;;;;;;4983784;28;20498;-69
2023/04/14 01:37:53;;;;;;;8.82;3.30;;;6.70;99.90;;;;;;4971099;28;20078;-69
2023/04/14 01:40:21;;;;;;;8.32;3.10;;;6.70;99.90;;;;;;4988371;28;20073;-69
2023/04/14 01:42:53;;;;;;;8.50;2.75;;;6.70;99.90;;;;;;4969629;28;20060;-69
2023/04/14 01:45:23;;;;;;;8.27;2.95;;;6.70;99.90;;;;;;4966685;28;20082;-70
2023/04/14 01:47:50;;;;;;;6.97;3.38;;;6.70;99.90;;;;;;4985396;28;20125;-70
2023/04/14 01:50:17;;;;;;;8.82;3.00;;;6.80;99.90;;;;;;4988555;28;20051;-70
2023/04/14 01:52:50;;;;;;;10.55;3.50;;;6.80;99.90;;;;;;4977276;28;20090;-69
2023/04/14 01:55:18;;;;;;;7.18;2.90;;;6.80;99.90;;;;;;4987053;28;20486;-70
2023/04/14 01:57:47;;;;;;;6.40;3.22;;;6.80;99.90;;;;;;4965053;28;20249;-69
2023/04/14 02:00:15;;;;;;;6.88;3.35;;;6.70;99.90;;;;;;4981010;28;20038;-69
2023/04/14 02:02:44;;;;;;;8.50;3.65;;;6.70;99.90;;;;;;4989030;28;20075;-69
2023/04/14 02:05:12;;;;;;;7.05;3.28;;;6.80;99.90;;;;;;4967559;28;20498;-70
2023/04/14 02:07:39;;;;;;;8.10;3.20;;;6.70;99.90;;;;;;4972161;28;20042;-70
2023/04/14 02:10:09;;;;;;;8.40;3.60;;;6.70;99.90;;;;;;4981831;28;20125;-69
2023/04/14 02:12:38;;;;;;;10.98;4.03;;;6.70;99.90;;;;;;4963146;28;20557;-70
2023/04/14 02:15:05;;;;;;;6.80;3.40;;;6.70;99.90;;;;;;4987647;28;20375;-69
2023/04/14 02:17:32;;;;;;;10.85;3.63;;;6.80;99.90;;;;;;4985288;28;20704;-69
2023/04/14 02:19:59;;;;;;;12.40;4.00;;;6.80;99.90;;;;;;4985896;28;20058;-69
2023/04/14 02:22:26;;;;;;;7.90;3.35;;;6.80;99.90;;;;;;4968412;28;20105;-69
2023/04/14 02:24:53;;;;;;;7.38;3.40;;;6.80;99.90;;;;;;4969058;28;20042;-69
2023/04/14 02:27:46;;;;;;;9.68;3.33;;;6.80;99.90;;;;;;4977400;28;20050;-69
2023/04/14 02:30:18;;;;;;;9.27;3.70;;;6.80;99.90;;;;;;4978431;28;20410;-71
2023/04/14 02:32:55;;;;;;;8.73;3.10;;;6.80;99.90;;;;;;4983841;28;20041;-70
2023/04/14 02:35:26;;;;;;;8.70;3.25;;;6.90;99.90;;;;;;4965929;28;20062;-69
2023/04/14 02:37:59;;;;;;;8.85;3.35;;;6.90;99.90;;;;;;4983496;28;20401;-70
2023/04/14 02:40:29;;;;;;;7.05;3.47;;;6.80;99.90;;;;;;4986438;28;20054;-71
2023/04/14 02:43:06;;;;;;;9.00;3.80;;;6.90;99.90;;;;;;4985061;28;20069;-70
2023/04/14 02:45:35;;;;;;;8.13;3.42;;;6.80;99.90;;;;;;4969102;28;20540;-70
2023/04/14 02:48:06;;;;;;;7.65;3.17;;;6.80;99.90;;;;;;4979671;28;20046;-70
2023/04/14 02:50:34;;;;;;;8.68;3.50;;;6.80;99.90;;;;;;4985295;28;20113;-69
2023/04/14 02:53:01;;;;;;;;;;;6.80;99.90;;;;;;4969292;28;20065;-71
2023/04/14 02:55:28;;;;;;;9.18;3.65;;;6.80;99.90;;;;;;4985331;28;19922;-69
2023/04/14 02:57:54;;;;;;;6.97;3.58;;;6.80;99.90;;;;;;4968072;28;20046;-69
2023/04/14 03:00:21;;;;;;;6.13;3.53;;;6.70;99.90;;;;;;4964376;28;20042;-70
2023/04/14 03:02:47;;;;;;;7.07;3.45;;;6.70;99.90;;;;;;4985361;28;20583;-70
2023/04/14 03:05:13;;;;;;;8.57;3.33;;;6.70;99.90;;;;;;4979878;28;20550;-69
2023/04/14 03:07:42;;;;;;;7.47;3.35;;;6.70;99.90;;;;;;4982642;28;20305;-69
2023/04/14 03:10:10;;;;;;;10.48;3.72;;;6.60;99.90;;;;;;4968810;28;20097;-71
2023/04/14 03:12:37;;;;;;;9.18;3.83;;;6.70;99.90;;;;;;4985960;28;20069;-69
2023/04/14 03:15:03;;;;;;;6.97;3.47;;;6.60;99.90;;;;;;4984347;28;20092;-69
2023/04/14 03:17:31;;;;;;;9.23;3.50;;;6.50;99.90;;;;;;4969558;28;20042;-69
2023/04/14 03:19:57;;;;;;;9.00;3.97;;;6.50;99.90;;;;;;4966430;28;20050;-69
2023/04/14 03:22:26;;;;;;;7.03;3.70;;;6.50;99.90;;;;;;4981889;28;20067;-72
2023/04/14 03:24:57;;;;;;;8.93;3.97;;;6.50;99.90;;;;;;4986089;28;20115;-71
2023/04/14 03:27:29;;;;;;;8.38;3.40;;;6.40;99.90;;;;;;4987085;28;20117;-70
2023/04/14 03:30:00;;;;;;;10.13;3.50;;;6.30;99.90;;;;;;4985723;28;20046;-70
2023/04/14 03:32:32;;;;;;;6.60;3.40;;;6.30;99.90;;;;;;4987250;28;20386;-69
2023/04/14 03:35:00;;;;;;;8.57;4.03;;;6.20;99.90;;;;;;4983183;28;20042;-69
2023/04/14 03:37:27;;;;;;;7.45;3.78;;;6.10;99.90;;;;;;4979844;28;20038;-69
2023/04/14 03:39:57;;;;;;;6.75;3.63;;;6.10;99.90;;;;;;4957950;28;20042;-69
2023/04/14 03:42:25;;;;;;;8.15;3.70;;;6.10;99.90;;;;;;4967079;28;20031;-70
2023/04/14 03:44:55;;;;;;;8.02;3.97;;;6.00;99.90;;;;;;4985317;28;20042;-70
2023/04/14 03:47:22;;;;;;;10.68;3.95;;;5.90;99.90;;;;;;4964741;28;20045;-70
2023/04/14 03:49:53;;;;;;;8.10;3.92;;;5.90;99.90;;;;;;4981354;28;20050;-70
2023/04/14 03:52:22;;;;;;;8.98;4.05;;;5.80;99.90;;;;;;4986166;28;20038;-70
2023/04/14 03:54:53;;;;;;;7.10;3.67;;;5.80;99.90;;;;;;4986343;28;21223;-70
2023/04/14 03:57:21;;;;;;;9.70;3.83;;;5.80;99.90;;;;;;4984066;28;20130;-70
2023/04/14 03:59:49;;;;;;;8.95;4.18;;;5.70;99.90;;;;;;4987108;28;20045;-69
2023/04/14 04:02:16;;;;;;;11.57;4.38;;;5.60;99.90;;;;;;4968417;28;20050;-70
2023/04/14 04:04:43;;;;;;;9.50;4.68;;;5.60;99.90;;;;;;4984773;28;20038;-69
2023/04/14 04:07:12;;;;;;;10.32;4.32;;;5.50;99.90;;;;;;4982573;28;20505;-69
2023/04/14 04:09:38;;;;;;;7.45;4.30;;;5.50;99.90;;;;;;4973079;28;20143;-69
2023/04/14 04:12:06;;;;;;;10.68;4.07;;;5.40;99.90;;;;;;4985225;28;20038;-70
2023/04/14 04:14:34;;;;;;;10.07;4.68;;;5.40;99.90;;;;;;4963245;28;20415;-70
2023/04/14 04:17:05;;;;;;;10.95;4.47;;;5.40;99.90;;;;;;4962486;28;20034;-69
2023/04/14 04:19:33;;;;;;;7.80;4.65;;;5.40;99.90;;;;;;4981021;28;20061;-69
2023/04/14 04:22:00;;;;;;;8.82;4.30;;;5.40;99.90;;;;;;4985041;28;20402;-69
2023/04/14 04:24:30;;;;;;;8.35;4.70;;;5.40;99.90;;;;;;4967609;28;20180;-69
2023/04/14 04:26:57;;;;;;;11.77;4.22;;;5.40;99.90;;;;;;4985607;28;20046;-70
2023/04/14 04:29:23;;;;;;;10.65;4.72;;;5.40;99.90;;;;;;4962930;28;20042;-71
2023/04/14 04:31:52;;;;;;;8.32;4.53;;;5.30;99.90;;;;;;4968420;28;20045;-71
2023/04/14 04:34:19;;;;;;;10.75;4.53;;;5.30;99.90;;;;;;4959234;28;20482;-69
2023/04/14 04:36:46;;;;;;;9.13;4.50;;;5.30;99.90;;;;;;4982955;28;20065;-69
2023/04/14 04:39:11;;;;;;;9.43;4.68;;;5.20;99.90;;;;;;4979315;28;20057;-69
2023/04/14 04:41:37;;;;;;;9.65;5.10;;;5.30;99.90;;;;;;4983506;28;20038;-69
2023/04/14 04:44:02;;;;;;;12.07;5.15;;;5.30;99.90;;;;;;4983405;28;20104;-70
2023/04/14 04:46:56;;;;;;;11.38;5.30;;;5.30;99.90;;;;;;4982827;28;20043;-69
2023/04/14 04:49:22;;;;;;;10.05;4.78;;;5.30;99.90;;;;;;4984578;28;20034;-70
2023/04/14 04:51:48;;;;;;;10.38;4.90;;;5.30;99.90;;;;;;4963005;28;20565;-70
2023/04/14 04:54:14;;;;;;;12.38;4.82;;;5.40;99.90;;;;;;4984734;28;20049;-70
2023/04/14 04:56:40;;;;;;;10.13;5.07;;;5.40;99.90;;;;;;4984257;28;20061;-69
2023/04/14 04:59:06;;;;;;;11.27;5.10;;;5.40;99.90;;;;;;4967683;28;20035;-69
2023/04/14 05:01:31;;;;;;;11.65;4.85;;;5.40;99.90;;;;;;4985112;28;20042;-69
2023/04/14 05:03:57;;;;;;;8.40;4.75;;;5.50;99.90;;;;;;4988142;28;20035;-69
2023/04/14 05:06:26;;;;;;;10.35;4.22;;;5.50;99.90;;;;;;4974950;28;20485;-69
2023/04/14 05:08:54;;;;;;;9.30;4.00;;;5.50;99.90;;;;;;4985204;28;20049;-69
2023/04/14 05:11:20;;;;;;;9.18;4.50;;;5.40;99.90;;;;;;4969248;28;20050;-69
2023/04/14 05:13:46;;;;;;;10.38;4.80;;;5.40;99.90;;;;;;4983174;28;20046;-69
2023/04/14 05:16:12;;;;;;;14.60;4.82;;;5.40;99.90;;;;;;4989463;28;20092;-70
2023/04/14 05:18:38;;;;;;;12.68;4.57;;;5.40;99.90;;;;;;4969055;28;20082;-69
2023/04/14 05:21:09;;;;;;;12.82;5.18;;;5.40;99.90;;;;;;4988371;28;20053;-70
2023/04/14 05:23:36;;;;;;;13.73;4.80;;;5.40;99.90;;;;;;4965858;28;20070;-69
2023/04/14 05:26:04;;;;;;;10.38;5.32;;;5.50;99.90;;;;;;4987421;28;20113;-69
2023/04/14 05:28:30;;;;;;;;;;;5.50;99.90;;;;;;4988250;28;20049;-68
2023/04/14 05:30:55;;;;;;;11.63;4.72;;;5.60;99.90;;;;;;4981206;28;19930;-69
2023/04/14 05:33:21;;;;;;;11.95;5.15;;;5.70;99.90;;;;;;4981978;28;20038;-69
2023/04/14 05:35:49;;;;;;;11.18;5.72;;;5.80;99.90;;;;;;4983004;28;20051;-68
2023/04/14 05:38:15;;;;;;;;;;;5.90;99.90;;;;;;4985992;28;20046;-68
2023/04/14 05:40:41;;;;;;;12.23;4.88;;;6.00;99.90;;;;;;4988236;28;19922;-69
2023/04/14 05:43:07;;;;;;;10.80;5.50;;;6.10;99.90;;;;;;4972426;28;20097;-69
2023/04/14 05:45:33;;;;;;;10.65;5.07;;;6.20;99.90;;;;;;4987922;28;20046;-69
2023/04/14 05:47:59;;;;;;;12.77;4.85;;;6.30;99.90;;;;;;4985955;28;20038;-70
2023/04/14 05:50:25;;;;;;;11.70;5.13;;;6.40;99.90;;;;;;4989930;28;20045;-68
2023/04/14 05:52:51;;;;;;;12.75;5.82;;;6.50;99.90;;;;;;4975009;28;20035;-68
2023/04/14 05:55:17;;;;;;;10.25;4.70;;;6.60;99.90;;;;;;4984352;28;20074;-68
2023/04/14 05:57:43;;;;;;;11.57;4.93;;;6.70;99.90;;;;;;4984386;28;20049;-68
2023/04/14 06:00:11;;;;;;;11.85;4.95;;;6.80;99.90;;;;;;4982613;28;20043;-68
2023/04/14 06:02:37;;;;;;;10.23;4.95;;;6.80;99.90;;;;;;4987174;28;20105;-68
2023/04/14 06:05:05;;;;;;;13.50;4.95;;;6.90;99.90;;;;;;4983970;28;20042;-68
2023/04/14 06:07:34;;;;;;;10.55;4.97;;;6.90;99.90;;;;;;4988686;28;20058;-68
2023/04/14 06:10:00;;;;;;;10.73;4.88;;;6.90;99.90;;;;;;4986801;28;20049;-68
2023/04/14 06:12:29;;;;;;;10.65;4.82;;;7.00;99.90;;;;;;4976469;28;20175;-68
2023/04/14 06:14:57;;;;;;;9.70;5.30;;;6.90;99.90;;;;;;4965057;28;20054;-68
2023/04/14 06:17:26;;;;;;;11.30;5.15;;;7.00;99.90;;;;;;4955617;28;20046;-68
2023/04/14 06:19:52;;;;;;;11.32;4.85;;;7.00;99.90;;;;;;4963791;28;20417;-68
2023/04/14 06:22:18;;;;;;;9.93;5.18;;;7.00;99.90;;;;;;4970311;28;20541;-68
2023/04/14 06:24:47;;;;;;;10.18;5.00;;;7.10;99.90;;;;;;4961830;28;20047;-68
2023/04/14 06:27:14;;;;;;;9.82;4.80;;;7.10;99.90;;;;;;4959308;28;20050;-69
2023/04/14 06:29:40;;;;;;;13.40;4.82;;;7.10;99.90;;;;;;4962112;28;20043;-69
2023/04/14 06:32:06;;;;;;;9.93;4.32;;;7.20;99.90;;;;;;4957173;28;20098;-68
2023/04/14 06:34:32;;;;;;;11.65;4.72;;;7.30;99.90;;;;;;4966601;28;20055;-68
2023/04/14 06:37:07;;;;;;;12.27;4.70;;;7.30;99.90;;;;;;4969148;28;20049;-68
2023/04/14 06:39:33;;;;;;;9.93;4.70;;;7.40;99.90;;;;;;4962481;28;20055;-68
2023/04/14 06:41:58;;;;;;;10.63;4.60;;;7.50;99.90;;;;;;4964436;28;20054;-68
2023/04/14 06:44:24;;;;;;;11.98;4.32;;;7.70;99.90;;;;;;4960982;28;20078;-68
2023/04/14 06:46:50;;;;;;;11.68;4.72;;;7.70;99.90;;;;;;4968512;28;20570;-69
2023/04/14 06:49:18;;;;;;;10.00;4.15;;;7.80;99.90;;;;;;4962722;28;20027;-68
2023/04/14 06:51:44;;;;;;;11.70;4.10;;;7.90;99.90;;;;;;4959845;28;20066;-68
2023/04/14 06:54:10;;;;;;;8.85;4.00;;;8.00;99.90;;;;;;4971114;28;20050;-69
2023/04/14 06:56:36;;;;;;;8.30;4.30;;;8.10;99.90;;;;;;4960896;28;20050;-69
2023/04/14 06:59:01;;;;;;;10.75;4.10;;;8.20;99.90;;;;;;4961882;28;20051;-69
2023/04/14 07:01:27;;;;;;;8.30;3.60;;;8.30;99.90;;;;;;4954026;28;20130;-68
2023/04/14 07:03:53;;;;;;;10.63;3.95;;;8.40;99.90;;;;;;4965932;28;20039;-69
2023/04/14 07:06:18;;;;;;;9.70;3.92;;;8.50;99.90;;;;;;4968492;28;20055;-69
2023/04/14 07:08:45;;;;;;;8.93;4.03;;;8.60;99.90;;;;;;4961482;28;20110;-69
2023/04/14 07:11:11;;;;;;;11.05;4.13;;;8.70;99.90;;;;;;4961712;28;20078;-70
2023/04/14 07:13:37;;;;;;;10.15;4.03;;;8.80;99.90;;;;;;4965355;28;20065;-71
2023/04/14 07:16:07;;;;;;;10.95;4.00;;;8.80;99.90;;;;;;4968160;28;20618;-72
2023/04/14 07:18:33;;;;;;;10.07;4.30;;;8.90;99.90;;;;;;4959012;28;20051;-70
2023/04/14 07:21:00;;;;;;;11.07;4.30;;;9.00;99.90;;;;;;4959887;28;20046;-71
2023/04/14 07:23:26;;;;;;;9.13;3.90;;;9.10;99.90;;;;;;4965841;28;20054;-71
2023/04/14 07:25:57;;;;;;;8.88;3.70;;;9.10;99.90;;;;;;4968381;28;20043;-71
2023/04/14 07:28:24;;;;;;;10.20;3.95;;;9.20;99.90;;;;;;4967226;28;20085;-71
2023/04/14 07:30:51;;;;;;;11.63;4.07;;;9.30;99.90;;;;;;4964969;28;20118;-74
2023/04/14 07:33:18;;;;;;;10.20;3.35;;;9.50;99.90;;;;;;4957053;28;20121;-73
2023/04/14 07:35:44;;;;;;;9.55;3.40;;;9.50;99.90;;;;;;4957621;28;20043;-74
2023/04/14 07:38:10;;;;;;;8.82;3.50;;;9.60;99.90;;;;;;4969221;28;20046;-74
2023/04/14 07:40:36;;;;;;;8.32;2.92;;;9.70;99.90;;;;;;4968956;28;20042;-74
2023/04/14 07:43:02;;;;;;;8.68;3.50;;;9.70;99.90;;;;;;4965155;28;20110;-72
2023/04/14 07:45:27;;;;;;;7.22;2.90;;;9.80;99.90;;;;;;4966132;28;20049;-71
2023/04/14 07:47:53;;;;;;;10.02;3.45;;;9.90;99.90;;;;;;4967441;28;20078;-70
2023/04/14 07:50:19;;;;;;;8.32;3.33;;;10.00;99.90;;;;;;4964302;28;20077;-70
2023/04/14 07:52:45;;;;;;;8.60;3.38;;;10.00;99.90;;;;;;4959105;28;20150;-69
2023/04/14 07:55:10;;;;;;;9.77;3.30;;;10.10;99.90;;;;;;4966400;28;20545;-70
2023/04/14 07:57:36;;;;;;;10.02;3.40;;;10.20;99.90;;;;;;4968230;28;20073;-70
2023/04/14 08:00:03;;;;;;;8.82;3.13;;;10.30;99.90;;;;;;4964895;28;20078;-69
2023/04/14 08:02:29;;;;;;;10.77;3.17;;;10.30;99.90;;;;;;4967161;28;20050;-70
2023/04/14 08:04:55;;;;;;;8.15;2.92;;;10.30;99.90;;;;;;4965943;28;20046;-73
2023/04/14 08:07:20;;;;;;;12.77;3.50;;;10.40;99.90;;;;;;4964882;28;20042;-73
2023/04/14 08:09:48;;;;;;;10.00;3.05;;;10.50;99.90;;;;;;4961351;28;20047;-73
2023/04/14 08:12:13;;;;;;;;;;;10.50;99.20;;;;;;4963068;28;20554;-71
2023/04/14 08:14:39;;;;;;;11.23;2.97;;;10.60;99.70;;;;;;4965725;28;20013;-69
2023/04/14 08:17:08;;;;;;;6.40;2.88;;;10.70;99.10;;;;;;4961658;28;20058;-70
2023/04/14 08:19:33;;;;;;;8.18;2.90;;;10.70;97.00;;;;;;4979141;28;20253;-71
2023/04/14 08:21:59;;;;;;;9.30;3.15;;;10.70;96.20;;;;;;4988073;28;20047;-71
2023/04/14 08:24:25;;;;;;;12.82;3.17;;;10.80;97.10;;;;;;4962841;28;20054;-70
2023/04/14 08:26:50;;;;;;;9.45;2.58;;;10.90;97.00;;;;;;4963779;28;20501;-70
2023/04/14 08:29:16;;;;;;;10.57;2.47;;;11.10;96.60;;;;;;4985166;28;20449;-70
2023/04/14 08:31:42;;;;;;;6.00;2.33;;;11.10;94.80;;;;;;4970805;28;20526;-71
2023/04/14 08:34:07;;;;;;;7.53;2.13;;;11.10;93.30;;;;;;4982823;28;20100;-71
2023/04/14 08:36:33;;;;;;;5.70;2.00;;;11.20;91.50;;;;;;4980890;28;20108;-71
2023/04/14 08:38:59;;;;;;;9.52;2.90;;;11.20;90.30;;;;;;4986847;28;20046;-71
2023/04/14 08:41:27;;;;;;;10.25;2.90;;;11.20;90.30;;;;;;4974793;28;20042;-70
2023/04/14 08:43:52;;;;;;;10.45;3.30;;;11.30;90.70;;;;;;4987246;28;20046;-69
2023/04/14 08:46:19;;;;;;;11.90;2.65;;;11.40;90.80;;;;;;4986755;28;20038;-70
2023/04/14 08:48:47;;;;;;;8.68;2.35;;;11.50;90.90;;;;;;4983618;28;20053;-70
2023/04/14 08:51:31;;;;;;;10.88;2.60;;;11.60;91.20;;;;;;4986854;28;20035;-71
2023/04/14 08:53:57;;;;;;;6.68;2.60;;;11.70;89.70;;;;;;4989518;28;20039;-70
2023/04/14 08:56:26;;;;;;;7.57;2.22;;;11.80;90.00;;;;;;4966798;28;20054;-69
2023/04/14 08:58:55;;;;;;;9.27;2.50;;;11.90;88.40;;;;;;4965594;28;20514;-69
2023/04/14 09:01:22;;;;;;;23.65;3.47;;;11.90;88.30;;;;;;4957362;28;20047;-69
2023/04/14 09:03:49;;;;;;;7.05;2.70;;;12.00;87.60;;;;;;4985434;28;20144;-68
2023/04/14 09:06:18;;;;;;;10.20;2.90;;;12.00;87.60;;;;;;4966547;28;20510;-71
2023/04/14 09:08:43;;;;;;;9.02;3.15;;;12.10;86.40;;;;;;4984807;28;20120;-70
2023/04/14 09:11:10;;;;;;;9.40;2.92;;;12.10;86.30;;;;;;4985916;28;20085;-70
2023/04/14 09:13:37;;;;;;;8.00;3.00;;;12.10;86.60;;;;;;4986968;28;20052;-70
2023/04/14 09:16:03;;;;;;;6.18;3.40;;;12.20;86.10;;;;;;4987407;28;20469;-70
2023/04/14 09:18:30;;;;;;;10.52;3.75;;;12.30;85.20;;;;;;4973329;28;20057;-69
2023/04/14 09:20:57;;;;;;;8.97;3.37;;;12.30;85.90;;;;;;4982343;28;20058;-71
2023/04/14 09:23:24;;;;;;;8.50;3.30;;;12.30;86.20;;;;;;4967525;28;20046;-71
2023/04/14 09:25:50;;;;;;;8.80;3.53;;;12.40;86.20;;;;;;4983695;28;20054;-72
2023/04/14 09:28:15;;;;;;;9.02;3.33;;;12.40;84.80;;;;;;4969811;28;20125;-71
2023/04/14 09:30:42;;;;;;;9.07;3.70;;;12.50;83.70;;;;;;4982459;28;20086;-70
2023/04/14 09:33:18;;;;;;;9.80;3.47;;;12.50;83.50;;;;;;4968000;28;20407;-67
2023/04/14 09:35:47;;;;;;;9.45;3.45;;;12.50;82.50;;;;;;4974773;28;20042;-68
2023/04/14 09:38:13;;;;;;;9.50;3.25;;;12.50;81.60;;;;;;4985754;28;20042;-67
2023/04/14 09:40:41;;;;;;;11.00;3.40;;;12.50;81.90;;;;;;4968768;28;20486;-67
2023/04/14 09:43:09;;;;;;;9.05;3.63;;;12.60;81.70;;;;;;4987702;28;20101;-67
2023/04/14 09:45:43;;;;;;;8.00;3.10;;;12.60;81.50;;;;;;4981443;28;20129;-65
2023/04/14 09:48:11;;;;;;;8.43;2.85;;;12.70;81.20;;;;;;4988618;28;20046;-66
2023/04/14 09:51:08;;;;;;;9.50;2.50;;;12.80;80.90;;;;;;4985825;28;20050;-67
2023/04/14 09:53:36;;;;;;;8.35;3.10;;;12.80;79.70;;;;;;4980628;28;20055;-68
2023/04/14 09:56:10;;;;;;;15.98;3.13;;;12.90;80.90;;;;;;4985527;28;20516;-67
2023/04/14 09:58:41;;;;;;;9.73;3.30;;;13.00;81.00;;;;;;4985600;28;20045;-71
2023/04/14 10:01:17;;;;;;;12.13;3.60;;;13.10;80.60;;;;;;4984330;28;20390;-71
2023/04/14 10:03:45;;;;;;;10.33;3.10;;;13.10;80.50;;;;;;4987316;28;20045;-71
2023/04/14 10:06:19;;;;;;;10.90;3.60;;;13.20;81.20;;;;;;4990114;28;20411;-71
2023/04/14 10:08:50;;;;;;;7.85;3.47;;;13.30;81.30;;;;;;4985594;28;20397;-71
2023/04/14 10:11:24;;;;;;;8.35;3.58;;;13.40;81.10;;;;;;4982772;28;20045;-74
2023/04/14 10:13:56;;;;;;;11.00;3.55;;;13.50;81.70;;;;;;4983485;28;20047;-73
2023/04/14 10:16:22;;;;;;;10.45;3.80;;;13.60;80.30;;;;;;4977253;28;20169;-72
2023/04/14 10:18:49;;;;;;;8.63;3.60;;;13.60;80.60;;;;;;4967702;28;20070;-73
2023/04/14 10:21:15;;;;;;;12.07;4.40;;;13.60;79.60;;;;;;4969733;28;20046;-73
2023/04/14 10:23:42;;;;;;;10.35;4.07;;;13.70;79.70;;;;;;4970719;28;20434;-72
2023/04/14 10:26:10;;;;;;;11.65;4.50;;;13.70;80.60;;;;;;4964886;28;20050;-75
2023/04/14 10:28:39;;;;;;;11.32;4.50;;;13.80;81.10;;;;;;4968056;28;20122;-73
2023/04/14 10:31:08;;;;;;;9.80;4.00;;;13.90;81.20;;;;;;4965819;28;20133;-74
2023/04/14 10:33:37;;;;;;;10.73;3.88;;;14.00;80.00;;;;;;4955780;28;20062;-74
2023/04/14 10:36:04;;;;;;;12.68;4.93;;;14.00;79.10;;;;;;4965365;28;20054;-71
2023/04/14 10:38:44;;;;;;;10.82;4.65;;;14.10;78.30;;;;;;4968512;28;20050;-71
2023/04/14 10:41:10;;;;;;;10.90;4.30;;;14.10;77.90;;;;;;4964335;28;20058;-71
2023/04/14 10:43:37;;;;;;;11.05;4.10;;;14.20;78.70;;;;;;4964118;28;20066;-71
2023/04/14 10:46:04;;;;;;;11.50;4.10;;;14.20;77.60;;;;;;4967074;28;20039;-69
2023/04/14 10:48:38;;;;;;;9.55;3.97;;;14.20;76.80;;;;;;4960030;28;20302;-67
2023/04/14 10:51:06;;;;;;;9.43;3.80;;;14.20;76.70;;;;;;4955290;28;20130;-67
2023/04/14 10:53:49;;;;;;;11.30;4.70;;;14.30;77.20;;;;;;4968002;28;20699;-67
2023/04/14 10:56:15;;;;;;;9.80;4.53;;;14.30;78.00;;;;;;4966807;28;20049;-69
2023/04/14 10:58:52;;;;;;;10.63;3.78;;;14.40;77.70;;;;;;4961277;28;20319;-70
2023/04/14 11:01:22;;;;;;;13.02;4.60;;;14.50;76.10;;;;;;4964745;28;20043;-68
2023/04/14 11:03:48;;;;;;;8.23;3.60;;;14.60;74.70;;;;;;4963233;28;20055;-72
2023/04/14 11:06:46;;;;;;;9.98;3.70;;;14.80;74.60;;;;;;4964340;28;20143;-70
2023/04/14 11:09:30;;;;;;;9.40;4.10;;;14.90;73.20;;;;;;4967795;28;20055;-71
2023/04/14 11:12:00;;;;;;;11.98;3.88;;;15.00;72.50;;;;;;4956663;28;20105;-70
2023/04/14 11:14:29;;;;;;;10.25;4.10;;;15.00;72.10;;;;;;4962400;28;20125;-70
2023/04/14 11:17:03;;;;;;;12.65;4.60;;;15.10;72.00;;;;;;4963254;28;20046;-71
2023/04/14 11:19:32;;;;;;;11.25;4.30;;;15.20;71.60;;;;;;4963629;28;20038;-73
2023/04/14 11:21:58;;;;;;;9.35;3.80;;;15.30;70.10;;;;;;4960897;28;20070;-73
2023/04/14 11:24:24;;;;;;;7.53;3.72;;;15.30;69.90;;;;;;4965933;28;20143;-73
2023/04/14 11:26:54;;;;;;;10.05;3.70;;;15.30;69.80;;;;;;4963648;28;20057;-73
2023/04/14 11:29:20;;;;;;;11.00;4.47;;;15.50;69.80;;;;;;4959099;28;20587;-73
2023/04/14 11:31:58;;;;;;;13.33;4.03;;;15.60;69.30;;;;;;4966086;28;20478;-72
2023/04/14 11:34:24;;;;;;;;;;;15.60;69.20;;;;;;4967418;28;20626;-71
2023/04/14 11:36:53;;;;;;;11.77;3.85;;;15.70;70.00;;;;;;4965484;28;19922;-70
2023/04/14 11:39:19;;;;;;;9.20;4.32;;;15.70;69.10;;;;;;4962526;28;20174;-69
2023/04/14 11:41:46;;;;;;;11.88;4.18;;;15.80;67.60;;;;;;4967461;28;20121;-73
2023/04/14 11:44:17;;;;;;;12.35;5.00;;;15.80;67.60;;;;;;4960871;28;20466;-74
2023/04/14 11:46:46;;;;;;;24.10;6.90;;;15.80;68.10;;;;;;4957200;28;20042;-73
2023/04/14 11:49:11;;;;;;;13.32;4.60;;;15.90;68.60;;;;;;4963810;28;20045;-73
2023/04/14 11:51:37;;;;;;;12.27;4.85;;;15.90;68.20;;;;;;4964106;28;20181;-72
2023/04/14 11:54:03;;;;;;;11.73;4.07;;;15.80;68.10;;;;;;4966458;28;20050;-72
2023/04/14 11:56:30;;;;;;;9.70;4.05;;;15.80;68.00;;;;;;4964164;28;20071;-72
2023/04/14 11:59:04;;;;;;;10.15;3.80;;;15.80;66.70;;;;;;4957358;28;20051;-71
2023/04/14 12:01:31;;;;;;;10.15;3.60;;;15.80;67.20;;;;;;4967489;28;20035;-70
2023/04/14 12:03:58;;;;;;;10.30;3.83;;;15.80;66.70;;;;;;4962633;28;20361;-71
2023/04/14 12:06:25;;;;;;;9.43;3.42;;;15.90;66.00;;;;;;4962336;28;20034;-72
2023/04/14 12:08:53;;;;;;;10.65;3.80;;;16.00;65.10;;;;;;4960264;28;20513;-72
2023/04/14 12:11:18;;;;;;;9.80;3.60;;;16.00;64.30;;;;;;4966993;28;20042;-73
2023/04/14 12:13:46;;;;;;;7.85;3.45;;;16.00;64.10;;;;;;4964829;28;20049;-74
2023/04/14 12:16:12;;;;;;;;;;;16.00;63.80;;;;;;4960078;28;20043;-72
2023/04/14 12:18:38;;;;;;;8.75;3.50;;;15.80;64.30;;;;;;4971373;28;19944;-72
2023/04/14 12:21:05;;;;;;;13.13;3.72;;;15.80;64.50;;;;;;4965266;28;20197;-70
2023/04/14 12:23:35;;;;;;;7.32;3.13;;;15.80;63.80;;;;;;4978737;28;20038;-70
2023/04/14 12:26:01;;;;;;;9.80;3.15;;;15.60;62.10;;;;;;4985628;28;20042;-69
2023/04/14 12:28:28;;;;;;;7.80;2.80;;;15.60;62.10;;;;;;4987033;28;20038;-69
2023/04/14 12:31:01;;;;;;;11.35;3.97;;;15.60;63.20;;;;;;4984848;28;20039;-68
2023/04/14 12:33:27;;;;;;;10.50;3.30;;;15.60;64.50;;;;;;4987143;28;20050;-68
2023/04/14 12:35:59;;;;;;;8.27;3.03;;;15.80;64.10;;;;;;4985766;28;20177;-68
2023/04/14 12:38:28;;;;;;;8.65;3.08;;;15.90;64.00;;;;;;4981105;28;20490;-72
2023/04/14 12:40:55;;;;;;;8.10;2.63;;;16.10;62.90;;;;;;4982055;28;20490;-70
2023/04/14 12:43:31;;;;;;;10.13;3.43;;;16.20;61.90;;;;;;4968788;28;20035;-71
2023/04/14 12:45:57;;;;;;;9.35;3.38;;;16.30;62.00;;;;;;4985314;28;20093;-70
2023/04/14 12:48:47;;;;;;;8.73;3.22;;;16.50;62.40;;;;;;4986760;28;20393;-70
2023/04/14 12:51:19;;;;;;;6.82;3.00;;;16.50;62.00;;;;;;4968991;28;20047;-70
2023/04/14 12:53:47;;;;;;;8.77;3.13;;;16.50;60.90;;;;;;4973925;28;20050;-71
2023/04/14 12:56:14;;;;;;;8.68;3.05;;;16.60;61.60;;;;;;4955541;28;20051;-70